createdAt,value
2023-10-03T00:01:09.981Z,18.40
2023-10-03T00:03:14.804Z,18.40
2023-10-03T00:05:20.637Z,18.39
2023-10-03T00:07:24.018Z,18.47
2023-10-03T00:09:29.578Z,18.48
2023-10-03T00:11:34.490Z,18.48
2023-10-03T00:13:37.955Z,18.42
2023-10-03T00:15:44.972Z,18.42
2023-10-03T00:17:49.245Z,18.43
2023-10-03T00:19:52.806Z,18.47
2023-10-03T00:21:56.258Z,18.47
2023-10-03T00:23:59.627Z,18.43
2023-10-03T00:26:07.264Z,18.47
2023-10-03T00:28:12.099Z,18.41
2023-10-03T00:30:16.321Z,18.44
2023-10-03T00:32:19.921Z,18.45
2023-10-03T00:34:24.354Z,18.47
2023-10-03T00:36:28.042Z,18.49
2023-10-03T00:38:32.019Z,18.43
2023-10-03T00:40:37.124Z,18.47
2023-10-03T00:42:42.116Z,18.51
2023-10-03T00:44:46.204Z,18.44
2023-10-03T00:46:49.730Z,18.49
2023-10-03T00:48:52.623Z,18.54
2023-10-03T00:50:57.100Z,18.46
2023-10-03T00:53:06.289Z,18.48
2023-10-03T00:55:12.578Z,18.48
2023-10-03T00:57:16.198Z,18.45
2023-10-03T00:59:21.143Z,18.47
2023-10-03T01:01:28.394Z,18.47
2023-10-03T01:03:34.293Z,18.51
2023-10-03T01:05:39.284Z,18.57
2023-10-03T01:07:42.996Z,18.53
2023-10-03T01:09:46.421Z,18.54
2023-10-03T01:11:53.279Z,18.64
2023-10-03T01:14:00.241Z,18.74
2023-10-03T01:16:07.016Z,18.70
2023-10-03T01:18:15.253Z,18.58
2023-10-03T01:20:25.638Z,18.72
2023-10-03T01:22:29.296Z,18.68
2023-10-03T01:24:34.291Z,18.77
2023-10-03T01:26:36.912Z,18.39
2023-10-03T01:28:41.054Z,18.79
2023-10-03T01:30:44.817Z,18.80
2023-10-03T01:32:53.260Z,18.82
2023-10-03T01:34:55.828Z,18.85
2023-10-03T01:36:59.457Z,18.85
2023-10-03T01:39:04.216Z,18.87
2023-10-03T01:41:09.256Z,18.89
2023-10-03T01:43:12.696Z,18.92
2023-10-03T01:45:18.491Z,18.92
2023-10-03T01:47:22.353Z,18.92
2023-10-03T01:49:26.740Z,18.93
2023-10-03T01:51:30.189Z,18.93
2023-10-03T01:53:33.694Z,18.98
2023-10-03T01:55:37.380Z,18.96
2023-10-03T01:57:42.798Z,19.00
2023-10-03T01:59:46.343Z,19.01
2023-10-03T02:01:52.808Z,19.02
2023-10-03T02:05:59.667Z,18.99
2023-10-03T02:08:08.851Z,18.99
2023-10-03T02:10:13.844Z,18.94
2023-10-03T02:12:17.314Z,18.94
2023-10-03T02:14:22.069Z,18.92
2023-10-03T02:16:26.001Z,18.92
2023-10-03T02:18:30.257Z,18.92
2023-10-03T02:20:39.631Z,18.88
2023-10-03T02:22:43.058Z,18.80
2023-10-03T02:24:46.944Z,18.80
2023-10-03T02:26:50.512Z,18.85
2023-10-03T02:28:53.966Z,18.87
2023-10-03T02:31:00.644Z,18.88
2023-10-03T02:33:11.245Z,18.89
2023-10-03T02:35:15.756Z,18.84
2023-10-03T02:37:19.404Z,18.95
2023-10-03T02:39:26.397Z,18.92
2023-10-03T02:41:31.940Z,18.97
2023-10-03T02:43:39.999Z,18.94
2023-10-03T02:45:44.494Z,18.92
2023-10-03T02:47:50.141Z,18.91
2023-10-03T02:49:53.944Z,19.01
2023-10-03T02:52:00.974Z,19.05
2023-10-03T02:54:04.974Z,19.14
2023-10-03T02:56:09.683Z,19.18
2023-10-03T02:58:15.912Z,19.18
2023-10-03T03:00:20.854Z,19.23
2023-10-03T03:02:23.586Z,19.23
2023-10-03T03:04:30.863Z,19.26
2023-10-03T03:06:34.373Z,19.27
2023-10-03T03:08:41.306Z,19.34
2023-10-03T03:10:44.774Z,19.37
2023-10-03T03:12:48.161Z,19.36
2023-10-03T03:14:53.615Z,19.39
2023-10-03T03:16:57.347Z,19.30
2023-10-03T03:19:01.707Z,19.45
2023-10-03T03:21:10.374Z,19.44
2023-10-03T03:23:15.136Z,19.42
2023-10-03T03:25:25.967Z,19.43
2023-10-03T03:27:33.733Z,19.43
2023-10-03T03:29:37.802Z,19.41
2023-10-03T03:31:44.013Z,19.43
2023-10-03T03:33:48.153Z,19.39
2023-10-03T03:35:50.636Z,19.33
2023-10-03T03:37:57.712Z,19.42
2023-10-03T03:40:13.555Z,19.40
2023-10-03T03:42:18.327Z,19.41
2023-10-03T03:44:22.340Z,19.39
2023-10-03T03:46:25.917Z,19.38
2023-10-03T03:48:29.498Z,19.35
2023-10-03T03:50:35.432Z,19.36
2023-10-03T03:52:41.942Z,19.37
2023-10-03T03:54:46.702Z,19.40
2023-10-03T03:56:50.504Z,19.39
2023-10-03T03:58:55.129Z,19.39
2023-10-03T04:00:58.568Z,19.31
2023-10-03T04:03:06.501Z,19.41
2023-10-03T04:05:13.179Z,19.33
2023-10-03T04:07:17.911Z,18.96
2023-10-03T04:09:21.351Z,19.42
2023-10-03T04:11:26.405Z,19.39
2023-10-03T04:13:31.650Z,19.39
2023-10-03T04:15:35.131Z,19.37
2023-10-03T04:17:38.644Z,19.38
2023-10-03T04:19:42.235Z,19.38
2023-10-03T04:21:48.172Z,19.39
2023-10-03T04:23:57.462Z,19.40
2023-10-03T04:26:05.549Z,19.41
2023-10-03T04:28:12.840Z,19.16
2023-10-03T04:30:16.174Z,19.34
2023-10-03T04:32:19.898Z,19.29
2023-10-03T04:34:23.309Z,19.27
2023-10-03T04:36:27.581Z,19.23
2023-10-03T04:38:31.165Z,19.14
2023-10-03T04:40:36.320Z,19.09
2023-10-03T04:42:39.565Z,19.15
2023-10-03T04:44:44.335Z,18.94
2023-10-03T04:46:49.365Z,18.90
2023-10-03T04:48:52.851Z,18.90
2023-10-03T04:50:57.478Z,18.71
2023-10-03T04:53:01.407Z,18.79
2023-10-03T04:55:05.321Z,18.73
2023-10-03T04:57:08.689Z,18.75
2023-10-03T04:59:12.075Z,18.83
2023-10-03T05:01:17.208Z,18.92
2023-10-03T05:03:21.233Z,18.90
2023-10-03T05:05:26.462Z,18.97
2023-10-03T05:07:29.979Z,19.06
2023-10-03T05:09:34.264Z,19.11
2023-10-03T05:11:37.715Z,19.11
2023-10-03T05:13:44.378Z,19.14
2023-10-03T05:15:47.769Z,19.18
2023-10-03T05:17:52.520Z,19.17
2023-10-03T05:19:56.186Z,19.21
2023-10-03T05:21:59.787Z,19.19
2023-10-03T05:24:05.059Z,19.21
2023-10-03T05:26:08.654Z,19.33
2023-10-03T05:28:12.413Z,19.29
2023-10-03T05:30:16.443Z,19.49
2023-10-03T05:32:22.657Z,19.60
2023-10-03T05:34:27.350Z,19.76
2023-10-03T05:36:30.765Z,19.82
2023-10-03T05:38:34.186Z,19.87
2023-10-03T05:40:37.981Z,19.97
2023-10-03T05:42:48.206Z,20.01
2023-10-03T05:44:52.544Z,20.09
2023-10-03T05:46:57.092Z,20.13
2023-10-03T05:49:00.902Z,20.12
2023-10-03T05:51:07.593Z,20.16
2023-10-03T05:53:11.131Z,20.20
2023-10-03T05:55:15.135Z,20.24
2023-10-03T05:57:18.500Z,20.23
2023-10-03T05:59:22.152Z,20.30
2023-10-03T06:01:25.537Z,20.38
2023-10-03T06:03:28.979Z,20.40
2023-10-03T06:05:33.102Z,20.43
2023-10-03T06:07:38.411Z,20.48
2023-10-03T06:09:41.749Z,20.49
2023-10-03T06:11:45.292Z,20.51
2023-10-03T06:13:48.695Z,20.54
2023-10-03T06:15:53.295Z,20.54
2023-10-03T06:17:56.877Z,20.38
2023-10-03T06:20:00.301Z,20.59
2023-10-03T06:22:04.527Z,20.58
2023-10-03T06:24:09.590Z,20.56
2023-10-03T06:26:13.060Z,20.57
2023-10-03T06:28:16.489Z,20.58
2023-10-03T06:30:20.067Z,20.61
2023-10-03T06:32:23.598Z,20.32
2023-10-03T06:34:27.403Z,20.55
2023-10-03T06:36:30.832Z,20.58
2023-10-03T06:38:34.363Z,20.61
2023-10-03T06:40:42.115Z,20.62
2023-10-03T06:42:45.547Z,20.57
2023-10-03T06:44:49.264Z,20.47
2023-10-03T06:46:54.073Z,20.51
2023-10-03T06:48:57.636Z,20.45
2023-10-03T06:51:05.398Z,20.43
2023-10-03T06:53:09.940Z,20.40
2023-10-03T06:55:16.894Z,20.41
2023-10-03T06:57:21.800Z,20.38
2023-10-03T06:59:25.292Z,20.36
2023-10-03T07:01:28.915Z,20.37
2023-10-03T07:03:32.440Z,20.42
2023-10-03T07:05:35.979Z,20.34
2023-10-03T07:07:40.748Z,20.27
2023-10-03T07:09:44.670Z,20.23
2023-10-03T07:11:50.075Z,20.19
2023-10-03T07:13:55.362Z,20.17
2023-10-03T07:15:59.804Z,20.10
2023-10-03T07:18:05.849Z,20.04
2023-10-03T07:20:11.753Z,20.01
2023-10-03T07:22:15.144Z,20.02
2023-10-03T07:24:19.131Z,19.97
2023-10-03T07:26:22.696Z,19.93
2023-10-03T07:28:26.193Z,19.88
2023-10-03T07:30:31.000Z,19.87
2023-10-03T07:32:35.426Z,19.82
2023-10-03T07:34:43.496Z,19.80
2023-10-03T07:36:46.908Z,19.77
2023-10-03T07:38:49.649Z,19.67
2023-10-03T07:40:53.169Z,19.66
2023-10-03T07:42:56.608Z,19.53
2023-10-03T07:47:04.918Z,19.16
2023-10-03T07:49:09.123Z,19.58
2023-10-03T07:51:17.360Z,19.59
2023-10-03T07:53:20.888Z,19.57
2023-10-03T07:55:26.284Z,19.57
2023-10-03T07:57:30.113Z,19.65
2023-10-03T07:59:33.439Z,19.65
2023-10-03T08:01:57.435Z,19.63
2023-10-03T08:04:09.382Z,19.62
2023-10-03T08:06:16.129Z,19.57
2023-10-03T08:08:23.367Z,19.73
2023-10-03T08:10:30.125Z,19.72
2023-10-03T08:12:39.317Z,19.68
2023-10-03T08:14:43.348Z,19.67
2023-10-03T08:16:48.453Z,19.76
2023-10-03T08:18:58.816Z,19.40
2023-10-03T08:21:05.005Z,19.87
2023-10-03T08:23:10.629Z,19.80
2023-10-03T08:25:13.120Z,19.90
2023-10-03T08:27:20.524Z,19.91
2023-10-03T08:29:24.566Z,19.96
2023-10-03T08:31:28.677Z,19.76
2023-10-03T08:33:37.391Z,20.02
2023-10-03T08:35:41.160Z,19.81
2023-10-03T08:37:45.030Z,20.00
2023-10-03T08:39:49.869Z,20.02
2023-10-03T08:42:02.013Z,20.01
2023-10-03T08:44:13.418Z,20.01
2023-10-03T08:46:17.843Z,20.02
2023-10-03T08:48:26.177Z,19.98
2023-10-03T08:50:35.740Z,19.98
2023-10-03T08:52:48.104Z,19.87
2023-10-03T08:54:56.248Z,19.93
2023-10-03T08:57:00.513Z,19.88
2023-10-03T08:59:09.130Z,19.92
2023-10-03T09:01:18.836Z,19.91
2023-10-03T09:03:21.914Z,19.70
2023-10-03T09:05:25.763Z,19.91
2023-10-03T09:07:45.634Z,19.89
2023-10-03T09:09:49.294Z,19.90
2023-10-03T09:11:57.794Z,19.91
2023-10-03T09:14:02.566Z,19.91
2023-10-03T09:16:09.700Z,19.90
2023-10-03T09:18:16.813Z,19.95
2023-10-03T09:20:26.023Z,19.85
2023-10-03T09:22:32.767Z,19.87
2023-10-03T09:24:44.597Z,19.95
2023-10-03T09:26:51.940Z,19.91
2023-10-03T09:28:59.782Z,19.93
2023-10-03T09:31:09.276Z,19.98
2023-10-03T09:33:17.933Z,19.96
2023-10-03T09:35:22.381Z,19.91
2023-10-03T09:37:31.696Z,19.80
2023-10-03T09:39:40.893Z,19.91
2023-10-03T09:41:44.669Z,19.93
2023-10-03T09:43:50.467Z,19.91
2023-10-03T09:45:57.308Z,19.90
2023-10-03T09:48:07.497Z,19.86
2023-10-03T09:50:11.621Z,19.85
2023-10-03T09:52:24.036Z,19.90
2023-10-03T09:54:31.906Z,19.86
2023-10-03T09:56:41.480Z,19.81
2023-10-03T09:58:47.868Z,19.94
2023-10-03T10:00:53.054Z,19.88
2023-10-03T10:03:04.821Z,19.85
2023-10-03T10:05:20.747Z,19.90
2023-10-03T10:07:30.474Z,19.87
2023-10-03T10:09:40.122Z,19.73
2023-10-03T10:12:20.809Z,19.90
2023-10-03T10:14:24.703Z,19.93
2023-10-03T10:16:29.626Z,19.95
2023-10-03T10:19:02.554Z,19.95
2023-10-03T10:21:24.397Z,20.07
2023-10-03T10:23:36.171Z,19.96
2023-10-03T10:25:43.447Z,19.94
2023-10-03T10:27:47.336Z,19.91
2023-10-03T10:30:01.728Z,19.80
2023-10-03T10:32:18.863Z,19.73
2023-10-03T10:34:45.135Z,19.71
2023-10-03T10:37:02.768Z,19.66
2023-10-03T10:39:06.523Z,19.43
2023-10-03T10:41:19.143Z,19.44
2023-10-03T10:43:22.556Z,19.43
2023-10-03T10:45:25.091Z,19.55
2023-10-03T10:47:29.582Z,19.54
2023-10-03T10:50:18.178Z,19.45
2023-10-03T10:52:24.168Z,19.47
2023-10-03T10:54:27.730Z,19.49
2023-10-03T10:56:33.278Z,19.46
2023-10-03T10:58:46.953Z,19.32
2023-10-03T11:00:59.499Z,19.44
2023-10-03T11:03:03.594Z,19.39
2023-10-03T11:05:11.948Z,19.21
2023-10-03T11:07:22.554Z,18.48
2023-10-03T11:09:26.908Z,18.40
2023-10-03T11:11:40.038Z,18.12
2023-10-03T11:13:47.227Z,17.96
2023-10-03T11:15:51.384Z,17.87
2023-10-03T11:17:54.926Z,17.82
2023-10-03T11:19:58.531Z,17.65
2023-10-03T11:22:05.230Z,17.60
2023-10-03T11:24:19.521Z,17.55
2023-10-03T11:26:22.929Z,17.50
2023-10-03T11:28:29.429Z,17.39
2023-10-03T11:30:33.106Z,17.36
2023-10-03T11:32:37.154Z,17.34
2023-10-03T11:34:41.300Z,17.32
2023-10-03T11:36:46.061Z,17.38
2023-10-03T11:38:51.493Z,17.36
2023-10-03T11:40:54.939Z,17.31
2023-10-03T11:43:04.040Z,17.35
2023-10-03T11:45:10.357Z,17.42
2023-10-03T11:47:23.771Z,17.34
2023-10-03T11:49:28.608Z,17.29
2023-10-03T11:51:31.128Z,17.30
2023-10-03T11:53:34.541Z,17.31
2023-10-03T11:55:42.040Z,17.19
2023-10-03T11:57:46.099Z,17.24
2023-10-03T11:59:49.506Z,17.28
2023-10-03T12:01:58.113Z,17.33
2023-10-03T12:04:02.025Z,17.28
2023-10-03T12:06:05.687Z,17.21
2023-10-03T12:08:08.280Z,17.26
2023-10-03T12:10:13.268Z,17.24
2023-10-03T12:12:18.114Z,17.17
2023-10-03T12:14:21.535Z,17.12
2023-10-03T12:16:25.912Z,17.09
2023-10-03T12:18:29.471Z,17.04
2023-10-03T12:20:35.396Z,16.99
2023-10-03T12:22:42.727Z,16.97
2023-10-03T12:24:46.109Z,16.96
2023-10-03T12:26:49.649Z,16.91
2023-10-03T12:28:54.601Z,16.93
2023-10-03T12:30:58.067Z,16.87
2023-10-03T12:33:01.678Z,16.34
2023-10-03T12:35:05.752Z,16.82
2023-10-03T12:37:12.628Z,16.77
2023-10-03T12:39:19.486Z,16.67
2023-10-03T12:41:30.064Z,16.64
2023-10-03T12:43:35.001Z,16.65
2023-10-03T12:45:40.048Z,16.55
2023-10-03T12:47:48.266Z,16.58
2023-10-03T12:49:51.879Z,16.56
2023-10-03T12:51:56.033Z,16.56
2023-10-03T12:53:59.875Z,16.57
2023-10-03T12:56:03.285Z,16.62
2023-10-03T12:58:06.889Z,16.58
2023-10-03T13:00:13.519Z,16.59
2023-10-03T13:02:18.487Z,16.52
2023-10-03T13:04:23.416Z,16.47
2023-10-03T13:06:27.717Z,16.39
2023-10-03T13:08:31.946Z,16.29
2023-10-03T13:10:35.853Z,16.28
2023-10-03T13:12:42.513Z,16.33
2023-10-03T13:14:46.162Z,16.49
2023-10-03T13:16:48.619Z,16.49
2023-10-03T13:18:54.676Z,16.58
2023-10-03T13:20:58.676Z,16.62
2023-10-03T13:23:02.326Z,16.70
2023-10-03T13:25:06.715Z,16.60
2023-10-03T13:27:10.696Z,16.64
2023-10-03T13:29:14.153Z,16.64
2023-10-03T13:31:17.668Z,16.25
2023-10-03T13:33:21.151Z,16.55
2023-10-03T13:35:26.388Z,16.50
2023-10-03T13:37:30.563Z,16.49
2023-10-03T13:39:33.883Z,16.46
2023-10-03T13:41:39.429Z,16.44
2023-10-03T13:43:42.910Z,16.46
2023-10-03T13:45:47.000Z,16.47
2023-10-03T13:47:50.534Z,16.50
2023-10-03T13:49:54.153Z,16.63
2023-10-03T13:52:01.191Z,16.70
2023-10-03T13:54:06.328Z,17.06
2023-10-03T13:56:09.943Z,17.11
2023-10-03T13:58:13.316Z,17.32
2023-10-03T14:00:17.377Z,17.64
2023-10-03T14:02:23.404Z,17.61
2023-10-03T14:04:26.908Z,18.40
2023-10-03T14:06:31.420Z,18.37
2023-10-03T14:08:36.428Z,18.44
2023-10-03T14:10:44.768Z,18.25
2023-10-03T14:12:48.504Z,18.23
2023-10-03T14:14:52.016Z,18.04
2023-10-03T14:16:59.473Z,18.20
2023-10-03T14:19:03.165Z,18.23
2023-10-03T14:21:11.393Z,17.94
2023-10-03T14:23:15.013Z,17.77
2023-10-03T14:25:21.437Z,17.94
2023-10-03T14:27:24.860Z,18.36
2023-10-03T14:29:29.361Z,18.60
2023-10-03T14:31:31.929Z,18.52
2023-10-03T14:33:35.455Z,18.75
2023-10-03T14:35:41.724Z,18.29
2023-10-03T14:37:48.034Z,17.96
2023-10-03T14:39:51.431Z,17.72
2023-10-03T14:41:57.405Z,17.49
2023-10-03T14:44:04.932Z,17.28
2023-10-03T14:46:08.731Z,17.14
2023-10-03T14:48:12.348Z,16.98
2023-10-03T14:50:15.862Z,16.94
2023-10-03T14:52:19.455Z,16.97
2023-10-03T14:54:22.912Z,16.91
2023-10-03T14:56:26.373Z,16.99
2023-10-03T14:58:36.512Z,16.94
2023-10-03T15:00:42.552Z,16.98
2023-10-03T15:02:46.396Z,16.51
2023-10-03T15:04:51.187Z,16.85
2023-10-03T15:06:54.818Z,17.16
2023-10-03T15:08:59.076Z,17.48
2023-10-03T15:11:03.946Z,17.73
2023-10-03T15:13:08.013Z,17.83
2023-10-03T15:15:14.717Z,18.12
2023-10-03T15:17:18.210Z,18.13
2023-10-03T15:19:21.604Z,18.29
2023-10-03T15:21:25.679Z,17.93
2023-10-03T15:23:31.069Z,17.61
2023-10-03T15:25:35.254Z,17.40
2023-10-03T15:27:38.116Z,17.24
2023-10-03T15:29:42.036Z,17.01
2023-10-03T15:31:48.569Z,17.01
2023-10-03T15:33:53.609Z,17.00
2023-10-03T15:35:57.668Z,16.81
2023-10-03T15:38:01.057Z,16.73
2023-10-03T15:40:05.800Z,16.64
2023-10-03T15:42:09.258Z,16.64
2023-10-03T15:44:12.966Z,16.54
2023-10-03T15:46:17.385Z,16.43
2023-10-03T15:48:23.649Z,16.52
2023-10-03T15:50:28.342Z,16.42
2023-10-03T15:52:31.934Z,16.30
2023-10-03T15:54:36.468Z,16.14
2023-10-03T15:56:39.909Z,16.01
2023-10-03T15:58:43.372Z,15.92
2023-10-03T16:00:46.919Z,15.87
2023-10-03T16:02:50.709Z,15.79
2023-10-03T16:04:56.571Z,15.78
2023-10-03T16:07:00.014Z,15.70
2023-10-03T16:09:09.434Z,15.83
2023-10-03T16:11:13.935Z,15.86
2023-10-03T16:13:19.345Z,15.69
2023-10-03T16:15:23.014Z,15.65
2023-10-03T16:17:26.546Z,15.60
2023-10-03T16:19:32.444Z,15.60
2023-10-03T16:21:38.720Z,15.63
2023-10-03T16:23:42.665Z,15.61
2023-10-03T16:25:47.263Z,15.67
2023-10-03T16:27:51.219Z,15.55
2023-10-03T16:29:54.951Z,15.54
2023-10-03T16:31:58.402Z,15.50
2023-10-03T16:34:02.250Z,15.59
2023-10-03T16:36:07.094Z,15.53
2023-10-03T16:38:13.841Z,15.42
2023-10-03T16:40:18.469Z,15.42
2023-10-03T16:42:21.976Z,15.33
2023-10-03T16:44:25.638Z,15.35
2023-10-03T16:46:29.163Z,15.41
2023-10-03T16:48:33.187Z,15.36
2023-10-03T16:50:38.068Z,15.29
2023-10-03T16:52:41.357Z,15.28
2023-10-03T16:54:47.872Z,15.38
2023-10-03T16:56:51.321Z,15.36
2023-10-03T16:58:54.706Z,15.36
2023-10-03T17:00:59.017Z,15.45
2023-10-03T17:03:02.502Z,15.49
2023-10-03T17:05:08.484Z,15.53
2023-10-03T17:07:12.082Z,15.38
2023-10-03T17:09:14.757Z,15.26
2023-10-03T17:11:19.614Z,15.18
2023-10-03T17:13:22.897Z,15.26
2023-10-03T17:15:26.342Z,15.25
2023-10-03T17:17:29.793Z,15.17
2023-10-03T17:19:33.292Z,15.14
2023-10-03T17:21:37.262Z,15.08
2023-10-03T17:23:41.863Z,14.99
2023-10-03T17:25:45.834Z,15.10
2023-10-03T17:27:50.805Z,15.01
2023-10-03T17:29:54.289Z,15.02
2023-10-03T17:32:00.822Z,15.03
2023-10-03T17:34:04.993Z,15.03
2023-10-03T17:36:08.912Z,15.00
2023-10-03T17:38:13.167Z,15.05
2023-10-03T17:40:18.263Z,15.01
2023-10-03T17:42:21.342Z,15.02
2023-10-03T17:44:26.172Z,14.91
2023-10-03T17:46:30.032Z,14.95
2023-10-03T17:48:33.979Z,14.93
2023-10-03T17:50:37.627Z,14.82
2023-10-03T17:52:40.780Z,14.78
2023-10-03T17:54:44.653Z,14.77
2023-10-03T17:56:47.150Z,14.77
2023-10-03T17:58:51.097Z,14.71
2023-10-03T18:00:55.920Z,14.60
2023-10-03T18:02:59.521Z,14.56
2023-10-03T18:05:06.864Z,14.64
2023-10-03T18:07:10.918Z,14.55
2023-10-03T18:09:16.176Z,14.64
2023-10-03T18:11:20.651Z,14.67
2023-10-03T18:13:24.028Z,14.55
2023-10-03T18:15:27.900Z,14.63
2023-10-03T18:17:34.160Z,14.50
2023-10-03T18:19:37.887Z,14.45
2023-10-03T18:21:41.352Z,14.40
2023-10-03T18:23:45.290Z,14.42
2023-10-03T18:25:49.074Z,14.45
2023-10-03T18:27:52.535Z,14.34
2023-10-03T18:29:55.980Z,14.43
2023-10-03T18:32:00.728Z,14.38
2023-10-03T18:34:05.793Z,14.32
2023-10-03T18:36:09.485Z,14.31
2023-10-03T18:38:12.884Z,14.42
2023-10-03T18:40:18.361Z,14.27
2023-10-03T18:42:22.191Z,14.15
2023-10-03T18:44:25.676Z,14.27
2023-10-03T18:46:29.038Z,14.23
2023-10-03T18:48:34.486Z,14.48
2023-10-03T18:50:39.245Z,14.61
2023-10-03T18:52:42.749Z,14.87
2023-10-03T18:54:46.295Z,14.56
2023-10-03T18:56:50.204Z,14.38
2023-10-03T18:58:54.955Z,14.22
2023-10-03T19:00:58.979Z,14.25
2023-10-03T19:03:02.525Z,14.28
2023-10-03T19:05:05.864Z,14.46
2023-10-03T19:07:13.129Z,14.40
2023-10-03T19:09:18.005Z,14.25
2023-10-03T19:11:21.705Z,14.19
2023-10-03T19:13:25.179Z,14.25
2023-10-03T19:15:29.839Z,14.46
2023-10-03T19:17:33.629Z,14.29
2023-10-03T19:19:37.313Z,14.22
2023-10-03T19:21:41.598Z,14.22
2023-10-03T19:23:48.252Z,14.17
2023-10-03T19:25:52.145Z,14.36
2023-10-03T19:27:56.647Z,14.23
2023-10-03T19:29:59.357Z,14.18
2023-10-03T19:32:04.133Z,14.12
2023-10-03T19:34:08.072Z,14.18
2023-10-03T19:36:12.624Z,14.04
2023-10-03T19:38:16.247Z,13.97
2023-10-03T19:40:21.654Z,14.00
2023-10-03T19:42:25.394Z,14.01
2023-10-03T19:44:28.917Z,14.11
2023-10-03T19:46:32.330Z,14.34
2023-10-03T19:48:35.988Z,14.22
2023-10-03T19:50:42.009Z,14.02
2023-10-03T19:52:45.914Z,13.96
2023-10-03T19:54:49.247Z,13.84
2023-10-03T19:56:54.683Z,13.81
2023-10-03T19:58:59.518Z,13.76
2023-10-03T20:01:03.104Z,13.86
2023-10-03T20:03:06.888Z,13.66
2023-10-03T20:05:11.275Z,14.09
2023-10-03T20:07:16.326Z,13.90
2023-10-03T20:09:19.771Z,13.70
2023-10-03T20:11:23.243Z,13.60
2023-10-03T20:13:27.993Z,13.45
2023-10-03T20:15:31.821Z,13.24
2023-10-03T20:17:35.338Z,13.19
2023-10-03T20:19:40.366Z,13.44
2023-10-03T20:21:43.830Z,13.16
2023-10-03T20:23:47.295Z,13.12
2023-10-03T20:25:51.042Z,13.14
2023-10-03T20:27:54.800Z,13.43
2023-10-03T20:29:59.637Z,13.11
2023-10-03T20:32:03.971Z,13.21
2023-10-03T20:34:07.613Z,13.35
2023-10-03T20:36:13.515Z,13.17
2023-10-03T20:38:17.016Z,13.12
2023-10-03T20:40:20.693Z,12.89
2023-10-03T20:42:25.202Z,13.00
2023-10-03T20:44:28.734Z,12.88
2023-10-03T20:46:33.632Z,12.84
2023-10-03T20:48:36.105Z,12.85
2023-10-03T20:50:39.544Z,12.91
2023-10-03T20:52:42.993Z,13.02
2023-10-03T20:54:46.852Z,13.01
2023-10-03T20:56:50.620Z,13.09
2023-10-03T20:58:55.605Z,12.96
2023-10-03T21:00:59.021Z,12.99
2023-10-03T21:03:04.412Z,12.96
2023-10-03T21:05:13.962Z,12.91
2023-10-03T21:07:17.767Z,12.79
2023-10-03T21:09:22.972Z,12.77
2023-10-03T21:11:27.853Z,12.83
2023-10-03T21:13:35.237Z,12.79
2023-10-03T21:15:39.566Z,12.74
2023-10-03T21:17:42.077Z,12.76
2023-10-03T21:19:47.031Z,12.69
2023-10-03T21:21:52.820Z,12.72
2023-10-03T21:23:56.241Z,13.05
2023-10-03T21:26:07.243Z,12.85
2023-10-03T21:28:10.830Z,12.86
2023-10-03T21:30:14.590Z,12.72
2023-10-03T21:32:18.156Z,12.85
2023-10-03T21:34:21.765Z,12.68
2023-10-03T21:36:27.229Z,12.92
2023-10-03T21:38:30.185Z,12.81
2023-10-03T21:40:33.616Z,12.70
2023-10-03T21:42:36.260Z,12.90
2023-10-03T21:44:39.635Z,12.99
2023-10-03T21:46:42.983Z,12.76
2023-10-03T21:48:46.488Z,12.67
2023-10-03T21:50:49.859Z,12.75
2023-10-03T21:52:55.484Z,12.76
2023-10-03T21:54:57.861Z,12.85
2023-10-03T21:57:01.199Z,12.88
2023-10-03T21:59:04.887Z,12.84
2023-10-03T22:01:09.517Z,12.91
2023-10-03T22:03:12.119Z,12.80
2023-10-03T22:05:15.541Z,13.08
2023-10-03T22:07:18.938Z,12.90
2023-10-03T22:09:22.798Z,12.95
2023-10-03T22:11:26.908Z,13.07
2023-10-03T22:13:31.983Z,13.06
2023-10-03T22:15:35.713Z,13.16
2023-10-03T22:17:39.132Z,13.09
2023-10-03T22:19:42.565Z,13.14
2023-10-03T22:21:47.193Z,13.23
2023-10-03T22:23:50.512Z,12.84
2023-10-03T22:25:55.548Z,13.35
2023-10-03T22:28:00.044Z,13.35
2023-10-03T22:30:03.540Z,13.35
2023-10-03T22:32:06.939Z,13.37
2023-10-03T22:34:10.446Z,13.35
2023-10-03T22:36:12.854Z,13.36
2023-10-03T22:38:16.448Z,13.33
2023-10-03T22:40:19.911Z,13.38
2023-10-03T22:42:24.739Z,13.30
2023-10-03T22:44:28.178Z,13.27
2023-10-03T22:46:31.628Z,13.31
2023-10-03T22:48:35.307Z,13.25
2023-10-03T22:50:38.875Z,13.29
2023-10-03T22:52:42.397Z,13.27
2023-10-03T22:54:45.892Z,13.28
2023-10-03T22:56:49.247Z,13.21
2023-10-03T22:58:54.604Z,13.10
2023-10-03T23:00:59.840Z,13.31
2023-10-03T23:03:03.936Z,13.29
2023-10-03T23:05:08.204Z,13.13
2023-10-03T23:07:10.817Z,13.00
2023-10-03T23:09:14.189Z,13.28
2023-10-03T23:11:17.548Z,13.26
2023-10-03T23:13:20.904Z,13.26
2023-10-03T23:15:25.708Z,13.25
2023-10-03T23:17:29.242Z,13.23
2023-10-03T23:19:32.866Z,13.18
2023-10-03T23:21:36.341Z,13.18
2023-10-03T23:23:39.729Z,13.14
2023-10-03T23:25:43.426Z,13.19
2023-10-03T23:27:45.868Z,13.14
2023-10-03T23:29:49.158Z,13.19
2023-10-03T23:31:53.963Z,13.12
2023-10-03T23:33:57.628Z,13.11
2023-10-03T23:36:01.802Z,13.02
2023-10-03T23:38:05.488Z,13.09
2023-10-03T23:40:11.949Z,13.14
2023-10-03T23:42:15.400Z,13.12
2023-10-03T23:44:19.659Z,13.03
2023-10-03T23:46:23.917Z,13.01
2023-10-03T23:48:30.946Z,13.06
2023-10-03T23:50:34.931Z,13.03
2023-10-03T23:52:39.429Z,13.05
2023-10-03T23:54:42.832Z,13.05
2023-10-03T23:56:51.289Z,13.05
2023-10-03T23:58:55.011Z,13.00
